createdAt,value
2022-08-01T00:00:11.429Z,1.92
2022-08-01T00:05:13.062Z,3.00
2022-08-01T00:10:16.471Z,2.97
2022-08-01T00:15:18.744Z,1.85
2022-08-01T00:20:20.308Z,4.75
2022-08-01T00:25:21.867Z,3.22
2022-08-01T00:30:36.454Z,6.10
2022-08-01T00:35:38.112Z,1.73
2022-08-01T00:40:39.678Z,2.63
2022-08-01T00:45:41.384Z,1.85
2022-08-01T00:50:43.089Z,1.60
2022-08-01T00:55:44.705Z,1.88
2022-08-01T01:00:52.623Z,3.20
2022-08-01T01:06:33.243Z,2.70
2022-08-01T01:11:49.826Z,2.95
2022-08-01T01:16:54.633Z,3.60
2022-08-01T01:22:15.147Z,3.42
2022-08-01T01:27:37.248Z,2.55
2022-08-01T01:32:45.703Z,2.42
2022-08-01T01:37:50.751Z,3.13
2022-08-01T01:42:53.199Z,2.45
2022-08-01T01:47:57.733Z,4.65
2022-08-01T01:53:01.110Z,2.30
2022-08-01T01:58:03.510Z,5.10
2022-08-01T02:03:07.587Z,4.00
2022-08-01T02:08:12.152Z,3.97
2022-08-01T02:13:14.286Z,4.50
2022-08-01T02:18:16.134Z,4.53
2022-08-01T02:23:18.390Z,4.10
2022-08-01T02:28:31.853Z,3.95
2022-08-01T02:33:39.280Z,3.65
2022-08-01T02:38:45.508Z,6.88
2022-08-01T02:43:53.306Z,4.72
2022-08-01T02:48:59.418Z,5.75
2022-08-01T02:54:03.833Z,4.03
2022-08-01T02:59:09.970Z,4.90
2022-08-01T03:04:13.245Z,5.28
2022-08-01T03:09:16.926Z,6.25
2022-08-01T03:14:21.668Z,5.85
2022-08-01T03:19:26.959Z,4.30
2022-08-01T03:24:29.367Z,5.00
2022-08-01T03:29:32.791Z,4.55
2022-08-01T03:34:34.437Z,6.70
2022-08-01T03:39:45.114Z,4.50
2022-08-01T03:44:53.727Z,8.07
2022-08-01T03:49:57.285Z,6.13
2022-08-01T03:55:06.890Z,8.52
2022-08-01T04:00:08.947Z,5.45
2022-08-01T04:05:17.340Z,4.75
2022-08-01T04:10:18.908Z,7.25
2022-08-01T04:15:20.527Z,5.18
2022-08-01T04:20:22.233Z,7.60
2022-08-01T04:25:34.481Z,5.78
2022-08-01T04:30:37.151Z,5.97
2022-08-01T04:36:04.171Z,6.85
2022-08-01T04:41:08.530Z,8.38
2022-08-01T04:46:12.831Z,6.35
2022-08-01T04:51:16.109Z,12.77
2022-08-01T04:56:18.532Z,6.25
2022-08-01T05:01:20.189Z,6.80
2022-08-01T05:06:21.784Z,8.40
2022-08-01T05:11:23.366Z,7.97
2022-08-01T05:16:25.031Z,6.15
2022-08-01T05:21:26.601Z,7.63
2022-08-01T05:26:28.366Z,7.43
2022-08-01T05:31:30.090Z,7.78
2022-08-01T05:36:31.643Z,9.75
2022-08-01T05:41:33.430Z,7.30
2022-08-01T05:46:35.710Z,12.73
2022-08-01T05:51:37.335Z,8.63
2022-08-01T05:56:39.008Z,9.07
2022-08-01T06:01:40.664Z,10.27
2022-08-01T06:06:46.352Z,9.38
2022-08-01T06:11:47.901Z,14.98
2022-08-01T06:16:49.549Z,10.55
2022-08-01T06:21:51.126Z,9.70
2022-08-01T06:26:52.934Z,9.98
2022-08-01T06:31:54.546Z,9.75
2022-08-01T06:36:56.253Z,10.73
2022-08-01T06:41:57.829Z,9.35
2022-08-01T06:46:59.360Z,10.70
2022-08-01T06:52:00.921Z,7.75
2022-08-01T06:57:06.030Z,10.07
2022-08-01T07:02:08.564Z,8.77
2022-08-01T07:07:10.435Z,7.40
2022-08-01T07:12:12.011Z,8.50
2022-08-01T07:17:13.639Z,6.93
2022-08-01T07:22:15.233Z,6.78
2022-08-01T07:27:26.025Z,6.95
2022-08-01T07:32:28.007Z,5.97
2022-08-01T07:37:45.233Z,6.38
2022-08-01T07:42:50.911Z,10.05
2022-08-01T07:47:52.454Z,7.65
2022-08-01T07:52:54.016Z,8.82
2022-08-01T07:57:55.694Z,9.40
2022-08-01T08:02:57.268Z,7.78
2022-08-01T08:13:01.060Z,6.20
2022-08-01T08:18:04.166Z,7.88
2022-08-01T08:23:05.770Z,7.60
2022-08-01T08:28:10.485Z,6.60
2022-08-01T08:33:13.773Z,10.00
2022-08-01T08:38:15.429Z,6.03
2022-08-01T08:43:17.161Z,8.35
2022-08-01T08:48:18.884Z,7.13
2022-08-01T08:53:34.623Z,7.43
2022-08-01T08:58:38.544Z,5.72
2022-08-01T09:03:41.451Z,5.88
2022-08-01T09:08:43.317Z,5.63
2022-08-01T09:14:20.377Z,8.25
2022-08-01T09:19:39.639Z,7.15
2022-08-01T09:24:42.781Z,8.13
2022-08-01T09:29:44.313Z,5.43
2022-08-01T09:34:51.431Z,5.88
2022-08-01T09:39:56.282Z,5.07
2022-08-01T09:44:57.900Z,7.63
2022-08-01T09:49:59.948Z,5.28
2022-08-01T09:55:04.945Z,4.68
2022-08-01T10:00:35.630Z,4.80
2022-08-01T10:05:39.066Z,4.70
2022-08-01T10:10:42.278Z,3.53
2022-08-01T10:15:48.019Z,5.63
2022-08-01T10:20:50.285Z,5.68
2022-08-01T10:25:56.214Z,4.05
2022-08-01T10:30:59.542Z,4.00
2022-08-01T10:36:01.205Z,6.30
2022-08-01T10:41:05.989Z,4.30
2022-08-01T10:46:09.397Z,4.45
2022-08-01T10:51:18.505Z,3.95
2022-08-01T10:56:21.465Z,3.60
2022-08-01T11:01:32.831Z,4.75
2022-08-01T11:06:34.825Z,3.03
2022-08-01T11:12:05.804Z,3.80
2022-08-01T11:17:44.516Z,3.72
2022-08-01T11:23:02.890Z,5.18
2022-08-01T11:28:28.254Z,5.47
2022-08-01T11:33:45.481Z,5.53
2022-08-01T11:39:13.349Z,5.38
2022-08-01T11:44:24.876Z,3.88
2022-08-01T11:49:39.218Z,3.60
2022-08-01T12:00:02.337Z,4.43
2022-08-01T12:05:16.153Z,3.63
2022-08-01T12:10:20.084Z,4.07
2022-08-01T12:15:23.678Z,3.70
2022-08-01T12:20:36.695Z,4.75
2022-08-01T12:25:39.930Z,3.90
2022-08-01T12:30:41.864Z,3.00
2022-08-01T12:35:43.418Z,2.92
2022-08-01T12:40:46.778Z,3.90
2022-08-01T12:45:56.593Z,2.72
2022-08-01T12:50:59.765Z,2.72
2022-08-01T12:56:01.392Z,3.35
2022-08-01T13:01:12.097Z,2.97
2022-08-01T13:06:17.438Z,5.45
2022-08-01T13:11:19.735Z,3.38
2022-08-01T13:16:31.131Z,4.40
2022-08-01T13:21:52.603Z,3.45
2022-08-01T13:26:59.012Z,5.25
2022-08-01T13:32:29.619Z,4.10
2022-08-01T13:37:32.399Z,3.58
2022-08-01T13:42:34.602Z,3.17
2022-08-01T13:47:36.381Z,5.50
2022-08-01T13:52:38.089Z,3.45
2022-08-01T13:57:39.668Z,4.35
2022-08-01T14:02:41.236Z,2.65
2022-08-01T14:07:42.812Z,3.17
2022-08-01T14:12:45.769Z,4.45
2022-08-01T14:17:48.171Z,2.17
2022-08-01T14:22:49.924Z,1.90
2022-08-01T14:27:51.606Z,4.75
2022-08-01T14:32:53.157Z,2.97
2022-08-01T14:37:54.781Z,3.42
2022-08-01T14:42:59.394Z,3.03
2022-08-01T14:48:01.062Z,1.88
2022-08-01T14:53:03.283Z,2.00
2022-08-01T14:58:06.065Z,4.88
2022-08-01T15:03:07.664Z,2.78
2022-08-01T15:08:09.233Z,1.60
2022-08-01T15:13:10.973Z,3.58
2022-08-01T15:18:12.533Z,3.38
2022-08-01T15:23:14.208Z,1.52
2022-08-01T15:28:16.165Z,1.33
2022-08-01T15:33:17.783Z,2.08
2022-08-01T15:38:19.387Z,2.13
2022-08-01T15:43:21.034Z,3.63
2022-08-01T15:48:22.713Z,2.30
2022-08-01T15:53:24.312Z,1.63
2022-08-01T15:58:25.900Z,2.53
2022-08-01T16:03:27.479Z,1.65
2022-08-01T16:08:29.082Z,1.92
2022-08-01T16:13:30.675Z,1.77
2022-08-01T16:18:32.249Z,2.67
2022-08-01T16:23:34.243Z,2.75
2022-08-01T16:28:36.857Z,3.13
2022-08-01T16:33:45.864Z,3.30
2022-08-01T16:38:56.900Z,1.90
2022-08-01T16:43:58.622Z,2.88
2022-08-01T16:49:00.421Z,9.30
2022-08-01T16:54:02.336Z,2.22
2022-08-01T16:59:04.053Z,2.15
2022-08-01T17:04:05.649Z,2.30
2022-08-01T17:09:07.191Z,1.83
2022-08-01T17:14:08.769Z,3.75
2022-08-01T17:19:10.562Z,4.63
2022-08-01T17:24:15.394Z,3.75
2022-08-01T17:29:18.379Z,2.70
2022-08-01T17:34:19.974Z,2.97
2022-08-01T17:39:34.997Z,2.85
2022-08-01T17:44:41.529Z,3.30
2022-08-01T17:49:54.638Z,2.58
2022-08-01T17:54:57.240Z,5.75
2022-08-01T17:59:58.921Z,3.08
2022-08-01T18:05:00.604Z,3.00
2022-08-01T18:10:02.164Z,3.72
2022-08-01T18:15:04.733Z,2.75
2022-08-01T18:20:07.189Z,4.72
2022-08-01T18:25:09.370Z,3.33
2022-08-01T18:30:11.316Z,4.10
2022-08-01T18:35:14.151Z,2.58
2022-08-01T18:40:22.703Z,2.65
2022-08-01T18:45:24.606Z,4.32
2022-08-01T18:50:26.266Z,3.50
2022-08-01T18:55:27.846Z,2.88
2022-08-01T19:00:29.541Z,3.20
2022-08-01T19:05:34.762Z,3.80
2022-08-01T19:10:38.695Z,1.98
2022-08-01T19:15:40.365Z,2.17
2022-08-01T19:20:42.132Z,2.78
2022-08-01T19:25:55.566Z,2.60
2022-08-01T19:31:00.139Z,2.65
2022-08-01T19:36:02.542Z,3.58
2022-08-01T19:41:04.402Z,2.50
2022-08-01T19:46:06.730Z,2.20
2022-08-01T19:51:22.677Z,2.28
2022-08-01T19:56:41.512Z,3.25
2022-08-01T20:01:43.730Z,2.67
2022-08-01T20:06:46.390Z,2.60
2022-08-01T20:11:50.214Z,3.97
2022-08-01T20:16:53.586Z,4.53
2022-08-01T20:22:03.960Z,2.00
2022-08-01T20:27:07.482Z,4.20
2022-08-01T20:32:09.493Z,2.33
2022-08-01T20:37:12.748Z,4.45
2022-08-01T20:42:15.707Z,3.00
2022-08-01T20:47:17.573Z,3.63
2022-08-01T20:52:19.115Z,2.00
2022-08-01T20:57:27.932Z,3.38
2022-08-01T21:02:45.795Z,4.63
2022-08-01T21:07:52.719Z,3.30
2022-08-01T21:13:07.168Z,2.72
2022-08-01T21:18:14.833Z,4.65
2022-08-01T21:23:39.796Z,2.15
2022-08-01T21:28:53.851Z,3.28
2022-08-01T21:34:02.625Z,4.20
2022-08-01T21:39:06.710Z,2.55
2022-08-01T21:44:10.695Z,3.85
2022-08-01T21:49:12.587Z,3.63
2022-08-01T21:54:34.758Z,2.53
2022-08-01T21:59:59.743Z,3.10
2022-08-01T22:05:08.690Z,3.22
2022-08-01T22:10:14.097Z,3.72
2022-08-01T22:15:16.168Z,6.70
2022-08-01T22:20:28.437Z,4.10
2022-08-01T22:25:31.586Z,4.03
2022-08-01T22:30:35.211Z,3.58
2022-08-01T22:35:39.922Z,4.00
2022-08-01T22:40:49.280Z,4.25
2022-08-01T22:46:06.189Z,3.72
2022-08-01T22:51:38.312Z,6.15
2022-08-01T22:56:47.192Z,4.50
2022-08-01T23:01:50.909Z,4.35
2022-08-01T23:06:58.469Z,3.80
2022-08-01T23:12:03.021Z,4.80
2022-08-01T23:17:27.527Z,5.25
2022-08-01T23:22:31.863Z,4.88
2022-08-01T23:27:54.396Z,4.75
2022-08-01T23:32:58.186Z,3.83
2022-08-01T23:38:02.683Z,3.78
2022-08-01T23:43:05.986Z,6.90
2022-08-01T23:48:16.405Z,4.13
2022-08-01T23:53:17.974Z,4.95
2022-08-01T23:58:22.295Z,4.10
